BAN13 UKLL-SCCI
Flight info
| Callsign | BAN13 |
|---|---|
| Flight time | N/A |
| Altitude | 32000 |
| Route | DIBED DCT TIVON DCT ARSIN DCT TIBRO/N0486F310 DCT RIDVA DCT BORDI DCT PADKO UM984 DIVKO G7 MAMES M984 BISBA DCT RODRA/N0488F330 M985 MGA N851 VJF L82 RUNAX UL82 IBALU UN857 TERTO N857 DEREV/N0496F340 N857 GUNET UN857 OPADU/N0492F360 UN857 NEURA/N0486F380 UN857 SATBU/N0485F400 UN857 NELOX UM424 TOLEP UM661 CRR UM792 MDP UW33 DONED UZ117 TOGNO/N0497F430 UZ117 IRAVU UT109 GAL UP664 PALIX |
| Aircraft | B744/H-SDE3FGHIM1M2RWXY/LB1 |
Departure
| Time | 2026-04-22 18:48 |
|---|---|
| Airport | Lviv International Airport (UKLL) |
Arrival
| Time | N/A |
|---|---|
| Airport | President Carlos Ibáñez International Airport (SCCI) |
| Time | Latitude | Longitude | Altitude | Speed | Heading |
|---|---|---|---|---|---|
| 2026-04-22 18:18 | 49.81208 | 23.96066 | 1080 ft | 0 kts | 46° |
| 2026-04-22 18:32 | 49.81203 | 23.96058 | 1078 ft | 3 kts | 46° |
| 2026-04-22 18:32 | 49.81182 | 23.96024 | 1077 ft | 5 kts | 45° |
| 2026-04-22 18:33 | 49.81160 | 23.95990 | 1079 ft | 5 kts | 45° |
| 2026-04-22 18:33 | 49.81143 | 23.95950 | 1079 ft | 4 kts | 88° |
| 2026-04-22 18:33 | 49.81155 | 23.95907 | 1079 ft | 4 kts | 136° |
| 2026-04-22 18:33 | 49.81161 | 23.95899 | 1079 ft | 0 kts | 136° |
| 2026-04-22 18:40 | 49.81151 | 23.95914 | 1075 ft | 5 kts | 136° |
| 2026-04-22 18:40 | 49.81117 | 23.95965 | 1077 ft | 8 kts | 136° |
| 2026-04-22 18:40 | 49.81066 | 23.96024 | 1077 ft | 10 kts | 165° |
| 2026-04-22 18:40 | 49.80987 | 23.96032 | 1074 ft | 12 kts | 180° |
| 2026-04-22 18:41 | 49.80896 | 23.96032 | 1076 ft | 14 kts | 180° |
| 2026-04-22 18:41 | 49.80831 | 23.96059 | 1076 ft | 11 kts | 143° |
| 2026-04-22 18:41 | 49.80772 | 23.96145 | 1075 ft | 13 kts | 135° |
| 2026-04-22 18:41 | 49.80700 | 23.96252 | 1076 ft | 15 kts | 136° |
| 2026-04-22 18:42 | 49.80619 | 23.96372 | 1075 ft | 17 kts | 136° |
| 2026-04-22 18:42 | 49.80526 | 23.96511 | 1074 ft | 21 kts | 136° |
| 2026-04-22 18:42 | 49.80414 | 23.96677 | 1075 ft | 24 kts | 136° |
| 2026-04-22 18:42 | 49.80289 | 23.96865 | 1073 ft | 26 kts | 136° |
| 2026-04-22 18:43 | 49.80161 | 23.97059 | 1073 ft | 26 kts | 136° |
| 2026-04-22 18:43 | 49.80037 | 23.97246 | 1076 ft | 16 kts | 136° |
| 2026-04-22 18:43 | 49.80001 | 23.97337 | 1075 ft | 11 kts | 101° |
| 2026-04-22 18:43 | 49.79971 | 23.97441 | 1076 ft | 5 kts | 146° |
| 2026-04-22 18:44 | 49.79936 | 23.97436 | 1076 ft | 7 kts | 237° |
| 2026-04-22 18:44 | 49.79949 | 23.97369 | 1076 ft | 8 kts | 327° |
| 2026-04-22 18:44 | 49.79976 | 23.97336 | 1075 ft | 0 kts | 315° |
| 2026-04-22 18:47 | 49.80044 | 23.97231 | 1076 ft | 39 kts | 315° |
| 2026-04-22 18:47 | 49.80400 | 23.96700 | 1073 ft | 97 kts | 316° |
| 2026-04-22 18:47 | 49.80995 | 23.95801 | 1074 ft | 137 kts | 315° |
| 2026-04-22 18:47 | 49.81748 | 23.94665 | 1075 ft | 159 kts | 315° |
| 2026-04-22 18:48 | 49.82593 | 23.93413 | 1277 ft | 165 kts | 316° |
| 2026-04-22 18:48 | 49.83503 | 23.92115 | 1817 ft | 162 kts | 316° |
| 2026-04-22 18:48 | 49.84396 | 23.90795 | 2346 ft | 181 kts | 315° |
| 2026-04-22 18:48 | 49.85342 | 23.89377 | 2665 ft | 197 kts | 315° |
| 2026-04-22 18:49 | 49.86372 | 23.87843 | 3124 ft | 204 kts | 315° |
| 2026-04-22 18:49 | 49.87474 | 23.86204 | 3408 ft | 227 kts | 315° |
| 2026-04-22 18:49 | 49.88652 | 23.84451 | 3635 ft | 242 kts | 315° |
| 2026-04-22 18:49 | 49.89716 | 23.82351 | 3853 ft | 256 kts | 296° |
| 2026-04-22 18:50 | 49.90381 | 23.79700 | 4083 ft | 270 kts | 289° |
| 2026-04-22 18:50 | 49.90802 | 23.76828 | 4576 ft | 277 kts | 275° |
| 2026-04-22 18:50 | 49.90823 | 23.73833 | 5243 ft | 271 kts | 270° |
| 2026-04-22 18:50 | 49.90743 | 23.70810 | 5903 ft | 282 kts | 268° |
| 2026-04-22 18:51 | 49.90639 | 23.67765 | 6563 ft | 276 kts | 269° |
| 2026-04-22 18:51 | 49.90542 | 23.64695 | 7185 ft | 278 kts | 269° |
| 2026-04-22 18:51 | 49.90461 | 23.61595 | 7810 ft | 288 kts | 270° |
| 2026-04-22 18:51 | 49.90393 | 23.58486 | 8419 ft | 289 kts | 270° |
| 2026-04-22 18:52 | 49.90332 | 23.55347 | 9049 ft | 292 kts | 270° |
| 2026-04-22 18:52 | 49.90275 | 23.52181 | 9671 ft | 287 kts | 271° |